Sunday, November 19, 2017, 9:12 AM EST
Back to Local

KART, Watertown International Airport

Location: Dexter, NY, United States Lat: 43.983
Local Time: 9:12 AM EST (14:12 GMT) Lon: -76.033
Time Zone: US/Eastern Elev: 324 ft

Show me the last for .
Show Decoded

2017-11-19 08:48 METAR KART 191348Z AUTO 29018G25KT 1/4SM SN FZFG FEW004 OVC012 M01/M02 A2943 RMK
                 AO2 PK WND 29027/1313 P0001 T10111017 =
2017-11-19 08:21 METAR KART 191321Z AUTO 30015G27KT 1/4SM SN FZFG SCT004 OVC008 M01/M02 A2940 RMK
                 AO2 PK WND 29027/1313 PRESRR P0001 T10111017 =
2017-11-19 07:56 METAR KART 191256Z AUTO 28014KT 1/4SM SN FG BKN004 OVC008 00/M01 A2936 RMK AO2
                 PK WND 29026/1212 PRESRR SLP946 P0002 T00001006 =
2017-11-19 07:53 METAR KART 191253Z AUTO 29015KT 1/4SM SN FG OVC005 00/M01 A2936 RMK AO2 PK WND
                 29026/1212 PRESRR P0002 =
2017-11-19 07:40 METAR KART 191240Z AUTO 30014G21KT 1/4SM SN FG SCT005 OVC010 00/00 A2934 RMK AO2
                 PK WND 29026/1212 PRESRR P0002 T00000000 =
2017-11-19 07:30 METAR KART 191230Z AUTO 30014KT 1/4SM SN FG BKN004 OVC010 00/00 A2933 RMK AO2 PK
                 WND 29026/1212 PRESRR P0001 T00000000 =
2017-11-19 07:18 METAR KART 191218Z AUTO 30015G26KT 1/2SM -SN FG SCT004 BKN008 OVC012 00/M01
                 A2931 RMK AO2 PK WND 29026/1212 PRESRR P0001 T00001006 =
2017-11-19 07:08 METAR KART 191208Z AUTO 27012G19KT 1/4SM SN FG BKN004 OVC008 00/00 A2929 RMK AO2
                 PRESRR P0001 T00000000 =
2017-11-19 06:56 METAR KART 191156Z AUTO 29012G17KT 1/4SM SN FG BKN005 OVC008 00/00 A2927 RMK AO2
                 RAE00SNB00 PRESRR SLP915 P0007 60066 70075 I6000 T00000000 10094 20000 51066 =
2017-11-19 06:51 METAR KART 191151Z AUTO 30011G16KT 1/4SM SN FG OVC005 00/00 A2926 RMK AO2
                 RAE00SNB00 PRESRR P0006 =
2017-11-19 06:20 METAR KART 191120Z AUTO 32007G20KT 1/2SM SN FG BKN007 OVC014 01/00 A2920 RMK AO2
                 RAE00SNB00 PRESRR P0002 T00060000 =
2017-11-19 06:10 METAR KART 191110Z AUTO 32013G22KT 1 1/2SM -SN BR OVC009 01/01 A2918 RMK AO2
                 RAE00SNB00 CIG 006V012 PRESRR P0000 T00060006 =
2017-11-19 05:56 METAR KART 191056Z AUTO 34013KT 5SM -RA BR BKN009 OVC014 01/01 A2915 RMK AO2 CIG
                 006V011 PRESRR SLP873 P0012 I1000 T00110006 =
2017-11-19 04:56 METAR KART 190956Z AUTO 01015KT 4SM -RA BR OVC005 02/02 A2907 RMK AO2 CIG
                 004V008 PRESRR SLP847 P0015 I1000 T00170017 =
2017-11-19 04:43 METAR KART 190943Z AUTO 01017G24KT 3SM -RA BR BKN005 OVC011 02/02 A2905 RMK AO2
                 CIG 003V007 P0014 I1000 T00220017 =
2017-11-19 04:32 METAR KART 190932Z AUTO 01014G18KT 2 1/2SM RA BR OVC005 03/03 A2905 RMK AO2 CIG
                 003V008 P0013 T00280028 =
2017-11-19 03:56 METAR KART 190856Z AUTO 35009KT 1 1/2SM +RA BR FEW003 BKN009 OVC014 06/06 A2903
                 RMK AO2 CIG 007V012 SLP833 P0030 60032 T00560056 56016 =
2017-11-19 03:51 METAR KART 190851Z AUTO 36010KT 1 1/2SM +RA BR FEW004 BKN009 OVC014 06/06 A2904
                 RMK AO2 CIG 007V011 P0028 =
2017-11-19 03:18 METAR KART 190818Z AUTO 31008KT 1 3/4SM +RA BR BKN011 OVC016 09/08 A2904 RMK AO2
                 P0007 T00890078 =
2017-11-19 02:58 METAR KART 190758Z AUTO VRB03KT 4SM -RA BR BKN014 BKN019 OVC033 09/08 A2904 RMK
                 AO2 P0000 T00890078 =
2017-11-19 02:56 METAR KART 190756Z AUTO VRB03KT 5SM -RA BR SCT017 OVC033 09/08 A2904 RMK AO2
                 SLP833 P0001 T00940078 =
2017-11-19 01:56 METAR KART 190656Z AUTO 19006KT 6SM -RA BR BKN040 OVC047 09/07 A2906 RMK AO2
                 SLP840 P0001 T00890072 =
2017-11-19 00:56 METAR KART 190556Z AUTO 17009G15KT 8SM -RA OVC038 09/07 A2908 RMK AO2 RAB05
                 SLP848 P0000 60006 T00890072 10089 20056 56046 =
2017-11-18 23:56 METAR KART 190456Z AUTO 19007KT 150V240 10SM OVC033 08/06 A2911 RMK AO2 RAB00E35
                 SLP859 P0000 T00830061 400831039 =
2017-11-18 22:56 METAR KART 190356Z AUTO VRB04KT 10SM OVC033 07/06 A2917 RMK AO2 SLP879 T00720056
                 =
2017-11-18 22:19 METAR KART 190319Z AUTO 17009G20KT 140V210 6SM BR FEW018 BKN031 OVC041 07/06
                 A2918 RMK AO2 T00720061 =
2017-11-18 21:56 METAR KART 190256Z AUTO 16005KT 10SM FEW023 OVC029 07/06 A2922 RMK AO2 RAB00E16
                 PRESFR SLP895 P0000 60006 T00670056 56052 =
2017-11-18 20:56 METAR KART 190156Z AUTO 16007G15KT 9SM SCT020 OVC026 07/06 A2927 RMK AO2 RAE26
                 SLP914 P0000 T00670056 =
2017-11-18 19:56 METAR KART 190056Z AUTO 13005KT 6SM -RA BR OVC023 06/05 A2931 RMK AO2 PRESFR
                 SLP929 P0006 T00560050 =
2017-11-18 19:30 METAR KART 190030Z AUTO 13004KT 4SM -RA BR BKN024 OVC030 06/05 A2935 RMK AO2
                 P0005 T00560050 =
2017-11-18 19:15 METAR KART 190015Z AUTO 15006KT 2 1/2SM RA BR OVC028 06/05 A2936 RMK AO2 P0004
                 T00560050 =
2017-11-18 18:56 METAR KART 182356Z AUTO 15007KT 4SM RA BR OVC025 06/04 A2937 RMK AO2 RAB01
                 SLP950 P0003 60003 T00560044 10072 20056 58014 =
2017-11-18 17:56 METAR KART 182256Z AUTO 16009G16KT 10SM BKN023 OVC030 07/02 A2940 RMK AO2 SLP959
                 T00720022 =
2017-11-18 16:56 METAR KART 182156Z AUTO 16009KT 10SM FEW026 OVC037 07/02 A2942 RMK AO2 SLP965
                 T00720017 =
2017-11-18 16:54 METAR KART 182154Z AUTO 16007KT 10SM SCT026 OVC037 07/02 A2942 RMK AO2 =
2017-11-18 15:56 METAR KART 182056Z AUTO 16009KT 10SM BKN028 OVC039 07/01 A2944 RMK AO2 RAE23
                 SLP972 P0000 60000 T00720006 58028 =
2017-11-18 14:56 METAR KART 181956Z AUTO 18009KT 10SM -RA OVC026 07/M01 A2947 RMK AO2 RAB55
                 SLP982 P0000 T00671006 =
2017-11-18 13:56 METAR KART 181856Z AUTO 18006G14KT 10SM OVC028 07/M01 A2950 RMK AO2 SLP995
                 T00671011 =
2017-11-18 13:40 METAR KART 181840Z AUTO 18009G17KT 10SM OVC029 07/M01 A2950 RMK AO2 T00671011 =
2017-11-18 12:56 METAR KART 181756Z AUTO 17008KT 10SM OVC034 07/M02 A2952 RMK AO2 SLP000 60000
                 T00671017 10072 21017 58039 =
2017-11-18 11:56 METAR KART 181656Z AUTO 15003KT 10SM OVC033 07/M01 A2956 RMK AO2 PRESFR SLP012
                 T00671006 =
2017-11-18 10:56 METAR KART 181556Z AUTO 09003KT 10SM FEW043 SCT050 OVC065 06/01 A2961 RMK AO2
                 RAE16 PRESFR SLP030 P0000 T00560006 =
2017-11-18 09:56 METAR KART 181456Z AUTO VRB04KT 7SM -RA OVC060 05/M01 A2964 RMK AO2
                 UPB16E20RAB20 SLP040 P0000 60000 T00501006 58024 =

Support USWX by starting your Amazon purchase here.